sensor_id;sensor_type;location;lat;lon;timestamp;P1;durP1;ratioP1;P2;durP2;ratioP2
39264;SDS011;42646;51.910;7.724;2023-04-25T00:00:35;12.27;;;5.15;;
39264;SDS011;42646;51.910;7.724;2023-04-25T00:03:03;13.27;;;4.88;;
39264;SDS011;42646;51.910;7.724;2023-04-25T00:05:31;11.95;;;4.75;;
39264;SDS011;42646;51.910;7.724;2023-04-25T00:08:00;11.43;;;4.60;;
39264;SDS011;42646;51.910;7.724;2023-04-25T00:10:28;10.77;;;4.65;;
39264;SDS011;42646;51.910;7.724;2023-04-25T00:12:56;10.80;;;4.32;;
39264;SDS011;42646;51.910;7.724;2023-04-25T00:15:25;11.55;;;5.22;;
39264;SDS011;42646;51.910;7.724;2023-04-25T00:17:58;10.10;;;5.03;;
39264;SDS011;42646;51.910;7.724;2023-04-25T00:20:25;12.55;;;5.32;;
39264;SDS011;42646;51.910;7.724;2023-04-25T00:22:53;11.48;;;5.40;;
39264;SDS011;42646;51.910;7.724;2023-04-25T00:25:21;13.43;;;4.90;;
39264;SDS011;42646;51.910;7.724;2023-04-25T00:27:50;12.07;;;5.18;;
39264;SDS011;42646;51.910;7.724;2023-04-25T00:30:17;16.33;;;5.10;;
39264;SDS011;42646;51.910;7.724;2023-04-25T00:32:45;11.10;;;4.75;;
39264;SDS011;42646;51.910;7.724;2023-04-25T00:35:15;11.65;;;4.78;;
39264;SDS011;42646;51.910;7.724;2023-04-25T00:37:43;9.18;;;4.53;;
39264;SDS011;42646;51.910;7.724;2023-04-25T00:40:12;11.85;;;4.47;;
39264;SDS011;42646;51.910;7.724;2023-04-25T00:42:40;10.32;;;4.88;;
39264;SDS011;42646;51.910;7.724;2023-04-25T00:45:09;12.85;;;5.18;;
39264;SDS011;42646;51.910;7.724;2023-04-25T00:47:41;11.27;;;5.20;;
39264;SDS011;42646;51.910;7.724;2023-04-25T00:50:09;13.68;;;4.75;;
39264;SDS011;42646;51.910;7.724;2023-04-25T00:52:39;10.80;;;4.70;;
39264;SDS011;42646;51.910;7.724;2023-04-25T00:57:38;9.48;;;4.55;;
39264;SDS011;42646;51.910;7.724;2023-04-25T01:00:07;12.38;;;5.03;;
39264;SDS011;42646;51.910;7.724;2023-04-25T01:02:38;11.07;;;5.13;;
39264;SDS011;42646;51.910;7.724;2023-04-25T01:05:07;8.82;;;4.70;;
39264;SDS011;42646;51.910;7.724;2023-04-25T01:07:35;10.40;;;4.72;;
39264;SDS011;42646;51.910;7.724;2023-04-25T01:10:05;11.48;;;4.78;;
39264;SDS011;42646;51.910;7.724;2023-04-25T01:12:34;10.20;;;4.90;;
39264;SDS011;42646;51.910;7.724;2023-04-25T01:15:02;9.55;;;4.88;;
39264;SDS011;42646;51.910;7.724;2023-04-25T01:17:30;10.07;;;4.63;;
39264;SDS011;42646;51.910;7.724;2023-04-25T01:19:59;9.38;;;4.88;;
39264;SDS011;42646;51.910;7.724;2023-04-25T01:22:32;8.82;;;4.60;;
39264;SDS011;42646;51.910;7.724;2023-04-25T01:25:00;7.10;;;4.38;;
39264;SDS011;42646;51.910;7.724;2023-04-25T01:27:30;9.90;;;4.35;;
39264;SDS011;42646;51.910;7.724;2023-04-25T01:29:58;9.20;;;5.15;;
39264;SDS011;42646;51.910;7.724;2023-04-25T01:32:27;7.82;;;4.60;;
39264;SDS011;42646;51.910;7.724;2023-04-25T01:34:58;9.45;;;4.65;;
39264;SDS011;42646;51.910;7.724;2023-04-25T01:37:25;9.85;;;4.35;;
39264;SDS011;42646;51.910;7.724;2023-04-25T01:39:55;11.20;;;4.53;;
39264;SDS011;42646;51.910;7.724;2023-04-25T01:42:22;9.15;;;4.57;;
39264;SDS011;42646;51.910;7.724;2023-04-25T01:44:51;9.90;;;4.85;;
39264;SDS011;42646;51.910;7.724;2023-04-25T01:47:19;11.15;;;4.90;;
39264;SDS011;42646;51.910;7.724;2023-04-25T01:49:47;9.75;;;4.50;;
39264;SDS011;42646;51.910;7.724;2023-04-25T01:52:15;7.63;;;4.28;;
39264;SDS011;42646;51.910;7.724;2023-04-25T01:54:43;7.68;;;4.18;;
39264;SDS011;42646;51.910;7.724;2023-04-25T01:57:15;6.97;;;4.00;;
39264;SDS011;42646;51.910;7.724;2023-04-25T01:59:43;7.63;;;3.83;;
39264;SDS011;42646;51.910;7.724;2023-04-25T02:02:19;9.05;;;4.18;;
39264;SDS011;42646;51.910;7.724;2023-04-25T02:04:47;9.13;;;3.90;;
39264;SDS011;42646;51.910;7.724;2023-04-25T02:07:21;7.97;;;4.07;;
39264;SDS011;42646;51.910;7.724;2023-04-25T02:09:51;6.10;;;3.90;;
39264;SDS011;42646;51.910;7.724;2023-04-25T02:12:23;7.32;;;3.72;;
39264;SDS011;42646;51.910;7.724;2023-04-25T02:15:13;7.05;;;3.65;;
39264;SDS011;42646;51.910;7.724;2023-04-25T02:17:49;8.15;;;3.80;;
39264;SDS011;42646;51.910;7.724;2023-04-25T02:20:20;7.22;;;3.67;;
39264;SDS011;42646;51.910;7.724;2023-04-25T02:22:50;10.32;;;3.53;;
39264;SDS011;42646;51.910;7.724;2023-04-25T02:25:19;9.63;;;3.40;;
39264;SDS011;42646;51.910;7.724;2023-04-25T02:27:49;11.95;;;4.03;;
39264;SDS011;42646;51.910;7.724;2023-04-25T02:30:17;21.83;;;4.00;;
39264;SDS011;42646;51.910;7.724;2023-04-25T02:32:46;16.35;;;3.70;;
39264;SDS011;42646;51.910;7.724;2023-04-25T02:35:15;10.18;;;3.85;;
39264;SDS011;42646;51.910;7.724;2023-04-25T02:37:44;10.70;;;3.28;;
39264;SDS011;42646;51.910;7.724;2023-04-25T02:40:12;9.70;;;3.17;;
39264;SDS011;42646;51.910;7.724;2023-04-25T02:42:40;15.75;;;3.80;;
39264;SDS011;42646;51.910;7.724;2023-04-25T02:45:09;9.55;;;2.95;;
39264;SDS011;42646;51.910;7.724;2023-04-25T02:47:41;14.77;;;3.78;;
39264;SDS011;42646;51.910;7.724;2023-04-25T02:50:10;10.55;;;3.08;;
39264;SDS011;42646;51.910;7.724;2023-04-25T02:52:40;13.95;;;3.50;;
39264;SDS011;42646;51.910;7.724;2023-04-25T02:55:15;9.70;;;3.25;;
39264;SDS011;42646;51.910;7.724;2023-04-25T02:57:44;10.23;;;3.38;;
39264;SDS011;42646;51.910;7.724;2023-04-25T03:00:30;10.00;;;3.05;;
39264;SDS011;42646;51.910;7.724;2023-04-25T03:02:59;9.68;;;2.97;;
39264;SDS011;42646;51.910;7.724;2023-04-25T03:05:28;13.57;;;3.55;;
39264;SDS011;42646;51.910;7.724;2023-04-25T03:07:55;12.48;;;3.38;;
39264;SDS011;42646;51.910;7.724;2023-04-25T03:10:26;8.45;;;3.30;;
39264;SDS011;42646;51.910;7.724;2023-04-25T03:12:57;8.90;;;3.67;;
39264;SDS011;42646;51.910;7.724;2023-04-25T03:15:25;14.25;;;3.63;;
39264;SDS011;42646;51.910;7.724;2023-04-25T03:17:54;11.55;;;3.28;;
39264;SDS011;42646;51.910;7.724;2023-04-25T03:20:22;12.93;;;3.47;;
39264;SDS011;42646;51.910;7.724;2023-04-25T03:22:51;12.75;;;4.35;;
39264;SDS011;42646;51.910;7.724;2023-04-25T03:25:18;12.07;;;3.55;;
39264;SDS011;42646;51.910;7.724;2023-04-25T03:27:47;9.23;;;3.20;;
39264;SDS011;42646;51.910;7.724;2023-04-25T03:30:15;11.43;;;3.45;;
39264;SDS011;42646;51.910;7.724;2023-04-25T03:32:43;10.57;;;3.22;;
39264;SDS011;42646;51.910;7.724;2023-04-25T03:35:19;10.63;;;3.58;;
39264;SDS011;42646;51.910;7.724;2023-04-25T03:37:47;15.50;;;4.25;;
39264;SDS011;42646;51.910;7.724;2023-04-25T03:40:21;10.70;;;3.60;;
39264;SDS011;42646;51.910;7.724;2023-04-25T03:43:17;11.82;;;3.40;;
39264;SDS011;42646;51.910;7.724;2023-04-25T03:46:12;13.85;;;3.33;;
39264;SDS011;42646;51.910;7.724;2023-04-25T03:48:41;9.80;;;3.00;;
39264;SDS011;42646;51.910;7.724;2023-04-25T03:51:13;12.07;;;3.35;;
39264;SDS011;42646;51.910;7.724;2023-04-25T03:53:43;9.00;;;3.30;;
39264;SDS011;42646;51.910;7.724;2023-04-25T03:56:39;9.38;;;4.05;;
39264;SDS011;42646;51.910;7.724;2023-04-25T03:59:16;10.63;;;3.60;;
39264;SDS011;42646;51.910;7.724;2023-04-25T04:01:44;11.90;;;3.42;;
39264;SDS011;42646;51.910;7.724;2023-04-25T04:04:12;9.57;;;3.30;;
39264;SDS011;42646;51.910;7.724;2023-04-25T04:06:41;11.77;;;3.30;;
39264;SDS011;42646;51.910;7.724;2023-04-25T04:09:18;12.02;;;3.40;;
39264;SDS011;42646;51.910;7.724;2023-04-25T04:11:46;10.25;;;3.28;;
39264;SDS011;42646;51.910;7.724;2023-04-25T04:17:12;10.95;;;3.50;;
39264;SDS011;42646;51.910;7.724;2023-04-25T04:19:39;13.65;;;3.70;;
39264;SDS011;42646;51.910;7.724;2023-04-25T04:22:18;11.65;;;3.40;;
39264;SDS011;42646;51.910;7.724;2023-04-25T04:24:50;15.88;;;3.55;;
39264;SDS011;42646;51.910;7.724;2023-04-25T04:27:38;14.55;;;3.70;;
39264;SDS011;42646;51.910;7.724;2023-04-25T04:30:22;13.85;;;3.92;;
39264;SDS011;42646;51.910;7.724;2023-04-25T04:32:57;13.05;;;3.78;;
39264;SDS011;42646;51.910;7.724;2023-04-25T04:35:25;14.18;;;3.80;;
39264;SDS011;42646;51.910;7.724;2023-04-25T04:37:54;10.65;;;3.92;;
39264;SDS011;42646;51.910;7.724;2023-04-25T04:40:26;14.13;;;4.28;;
39264;SDS011;42646;51.910;7.724;2023-04-25T04:43:05;10.52;;;3.80;;
39264;SDS011;42646;51.910;7.724;2023-04-25T04:45:38;14.27;;;3.97;;
39264;SDS011;42646;51.910;7.724;2023-04-25T04:48:31;12.27;;;3.67;;
39264;SDS011;42646;51.910;7.724;2023-04-25T04:51:15;14.25;;;3.70;;
39264;SDS011;42646;51.910;7.724;2023-04-25T04:53:53;12.45;;;4.07;;
39264;SDS011;42646;51.910;7.724;2023-04-25T04:56:47;17.10;;;4.38;;
39264;SDS011;42646;51.910;7.724;2023-04-25T04:59:44;10.32;;;3.72;;
39264;SDS011;42646;51.910;7.724;2023-04-25T05:02:30;14.45;;;4.30;;
39264;SDS011;42646;51.910;7.724;2023-04-25T05:05:21;13.18;;;3.72;;
39264;SDS011;42646;51.910;7.724;2023-04-25T05:07:58;11.82;;;4.20;;
39264;SDS011;42646;51.910;7.724;2023-04-25T05:10:50;12.73;;;3.88;;
39264;SDS011;42646;51.910;7.724;2023-04-25T05:13:56;14.88;;;4.00;;
39264;SDS011;42646;51.910;7.724;2023-04-25T05:16:53;13.32;;;4.13;;
39264;SDS011;42646;51.910;7.724;2023-04-25T05:19:45;10.65;;;3.65;;
39264;SDS011;42646;51.910;7.724;2023-04-25T05:22:39;10.02;;;3.80;;
39264;SDS011;42646;51.910;7.724;2023-04-25T05:25:15;13.23;;;4.00;;
39264;SDS011;42646;51.910;7.724;2023-04-25T05:28:23;14.55;;;4.30;;
39264;SDS011;42646;51.910;7.724;2023-04-25T05:31:06;11.27;;;3.90;;
39264;SDS011;42646;51.910;7.724;2023-04-25T05:34:08;15.83;;;3.77;;
39264;SDS011;42646;51.910;7.724;2023-04-25T05:36:51;15.10;;;4.20;;
39264;SDS011;42646;51.910;7.724;2023-04-25T05:39:19;13.60;;;3.58;;
39264;SDS011;42646;51.910;7.724;2023-04-25T05:42:05;14.93;;;4.40;;
39264;SDS011;42646;51.910;7.724;2023-04-25T05:44:53;10.18;;;3.75;;
39264;SDS011;42646;51.910;7.724;2023-04-25T05:47:35;13.13;;;4.00;;
39264;SDS011;42646;51.910;7.724;2023-04-25T05:50:09;9.57;;;3.72;;
39264;SDS011;42646;51.910;7.724;2023-04-25T05:52:50;12.32;;;3.42;;
39264;SDS011;42646;51.910;7.724;2023-04-25T05:55:27;11.90;;;3.63;;
39264;SDS011;42646;51.910;7.724;2023-04-25T05:57:57;11.70;;;3.67;;
39264;SDS011;42646;51.910;7.724;2023-04-25T06:00:26;14.95;;;3.95;;
39264;SDS011;42646;51.910;7.724;2023-04-25T06:02:55;10.68;;;3.47;;
39264;SDS011;42646;51.910;7.724;2023-04-25T06:05:23;12.30;;;3.72;;
39264;SDS011;42646;51.910;7.724;2023-04-25T06:07:52;13.98;;;3.60;;
39264;SDS011;42646;51.910;7.724;2023-04-25T06:10:24;10.98;;;3.13;;
39264;SDS011;42646;51.910;7.724;2023-04-25T06:12:52;9.52;;;3.17;;
39264;SDS011;42646;51.910;7.724;2023-04-25T06:15:22;17.25;;;3.45;;
39264;SDS011;42646;51.910;7.724;2023-04-25T06:17:55;9.60;;;3.60;;
39264;SDS011;42646;51.910;7.724;2023-04-25T06:20:23;11.38;;;3.30;;
39264;SDS011;42646;51.910;7.724;2023-04-25T06:22:53;12.68;;;4.85;;
39264;SDS011;42646;51.910;7.724;2023-04-25T06:25:30;11.25;;;3.20;;
39264;SDS011;42646;51.910;7.724;2023-04-25T06:27:59;11.80;;;3.70;;
39264;SDS011;42646;51.910;7.724;2023-04-25T06:30:26;11.30;;;3.55;;
39264;SDS011;42646;51.910;7.724;2023-04-25T06:33:01;12.00;;;3.20;;
39264;SDS011;42646;51.910;7.724;2023-04-25T06:35:30;12.13;;;3.55;;
39264;SDS011;42646;51.910;7.724;2023-04-25T06:37:58;14.13;;;3.30;;
39264;SDS011;42646;51.910;7.724;2023-04-25T06:40:26;9.80;;;3.53;;
39264;SDS011;42646;51.910;7.724;2023-04-25T06:42:55;12.70;;;3.38;;
39264;SDS011;42646;51.910;7.724;2023-04-25T06:45:52;10.60;;;3.00;;
39264;SDS011;42646;51.910;7.724;2023-04-25T06:48:23;12.18;;;3.30;;
39264;SDS011;42646;51.910;7.724;2023-04-25T06:53:23;12.80;;;3.08;;
39264;SDS011;42646;51.910;7.724;2023-04-25T06:55:57;9.55;;;2.60;;
39264;SDS011;42646;51.910;7.724;2023-04-25T06:58:33;14.07;;;3.33;;
39264;SDS011;42646;51.910;7.724;2023-04-25T07:01:12;11.73;;;2.80;;
39264;SDS011;42646;51.910;7.724;2023-04-25T07:03:41;11.45;;;2.90;;
39264;SDS011;42646;51.910;7.724;2023-04-25T07:06:38;11.57;;;2.80;;
39264;SDS011;42646;51.910;7.724;2023-04-25T07:09:10;10.52;;;2.80;;
39264;SDS011;42646;51.910;7.724;2023-04-25T07:11:44;11.57;;;3.13;;
39264;SDS011;42646;51.910;7.724;2023-04-25T07:14:17;8.48;;;3.30;;
39264;SDS011;42646;51.910;7.724;2023-04-25T07:16:44;10.98;;;2.70;;
39264;SDS011;42646;51.910;7.724;2023-04-25T07:19:14;13.65;;;2.95;;
39264;SDS011;42646;51.910;7.724;2023-04-25T07:21:44;11.20;;;2.72;;
39264;SDS011;42646;51.910;7.724;2023-04-25T07:24:12;8.15;;;2.63;;
39264;SDS011;42646;51.910;7.724;2023-04-25T07:26:44;11.50;;;3.28;;
39264;SDS011;42646;51.910;7.724;2023-04-25T07:29:21;10.25;;;2.53;;
39264;SDS011;42646;51.910;7.724;2023-04-25T07:31:49;17.50;;;3.13;;
39264;SDS011;42646;51.910;7.724;2023-04-25T07:34:21;13.90;;;2.80;;
39264;SDS011;42646;51.910;7.724;2023-04-25T07:36:49;14.57;;;3.55;;
39264;SDS011;42646;51.910;7.724;2023-04-25T07:39:17;8.90;;;2.60;;
39264;SDS011;42646;51.910;7.724;2023-04-25T07:41:45;14.68;;;2.67;;
39264;SDS011;42646;51.910;7.724;2023-04-25T07:44:18;12.60;;;3.40;;
39264;SDS011;42646;51.910;7.724;2023-04-25T07:46:47;8.82;;;2.63;;
39264;SDS011;42646;51.910;7.724;2023-04-25T07:49:15;11.25;;;2.72;;
39264;SDS011;42646;51.910;7.724;2023-04-25T07:51:45;6.90;;;2.38;;
39264;SDS011;42646;51.910;7.724;2023-04-25T07:54:17;7.47;;;2.30;;
39264;SDS011;42646;51.910;7.724;2023-04-25T07:56:51;14.27;;;2.60;;
39264;SDS011;42646;51.910;7.724;2023-04-25T07:59:24;8.60;;;2.40;;
39264;SDS011;42646;51.910;7.724;2023-04-25T08:01:59;9.57;;;2.30;;
39264;SDS011;42646;51.910;7.724;2023-04-25T08:04:29;9.30;;;2.70;;
39264;SDS011;42646;51.910;7.724;2023-04-25T08:07:03;9.30;;;2.60;;
39264;SDS011;42646;51.910;7.724;2023-04-25T08:09:39;11.02;;;2.63;;
39264;SDS011;42646;51.910;7.724;2023-04-25T08:12:17;11.98;;;2.70;;
39264;SDS011;42646;51.910;7.724;2023-04-25T08:14:49;9.65;;;2.40;;
39264;SDS011;42646;51.910;7.724;2023-04-25T08:17:17;9.68;;;2.60;;
39264;SDS011;42646;51.910;7.724;2023-04-25T08:19:47;7.60;;;2.30;;
39264;SDS011;42646;51.910;7.724;2023-04-25T08:22:29;10.07;;;2.60;;
39264;SDS011;42646;51.910;7.724;2023-04-25T08:25:20;8.90;;;2.17;;
39264;SDS011;42646;51.910;7.724;2023-04-25T08:27:48;8.30;;;3.08;;
39264;SDS011;42646;51.910;7.724;2023-04-25T08:30:19;9.35;;;2.33;;
39264;SDS011;42646;51.910;7.724;2023-04-25T08:32:49;11.45;;;2.33;;
39264;SDS011;42646;51.910;7.724;2023-04-25T08:35:25;6.57;;;2.28;;
39264;SDS011;42646;51.910;7.724;2023-04-25T08:37:54;14.30;;;2.78;;
39264;SDS011;42646;51.910;7.724;2023-04-25T08:40:24;6.72;;;2.13;;
39264;SDS011;42646;51.910;7.724;2023-04-25T08:43:00;14.40;;;2.83;;
39264;SDS011;42646;51.910;7.724;2023-04-25T08:45:31;8.10;;;2.47;;
39264;SDS011;42646;51.910;7.724;2023-04-25T08:48:00;5.43;;;2.05;;
39264;SDS011;42646;51.910;7.724;2023-04-25T08:50:29;7.38;;;2.28;;
39264;SDS011;42646;51.910;7.724;2023-04-25T08:52:58;10.05;;;2.30;;
39264;SDS011;42646;51.910;7.724;2023-04-25T08:55:31;8.25;;;2.53;;
39264;SDS011;42646;51.910;7.724;2023-04-25T08:58:01;11.48;;;2.53;;
39264;SDS011;42646;51.910;7.724;2023-04-25T09:00:29;7.88;;;2.30;;
39264;SDS011;42646;51.910;7.724;2023-04-25T09:02:58;10.75;;;2.53;;
39264;SDS011;42646;51.910;7.724;2023-04-25T09:08:02;5.93;;;2.05;;
39264;SDS011;42646;51.910;7.724;2023-04-25T09:10:30;9.73;;;2.50;;
39264;SDS011;42646;51.910;7.724;2023-04-25T09:13:03;7.68;;;2.33;;
39264;SDS011;42646;51.910;7.724;2023-04-25T09:15:46;6.47;;;1.83;;
39264;SDS011;42646;51.910;7.724;2023-04-25T09:18:35;8.85;;;2.15;;
39264;SDS011;42646;51.910;7.724;2023-04-25T09:21:07;7.50;;;2.20;;
39264;SDS011;42646;51.910;7.724;2023-04-25T09:23:45;7.15;;;2.17;;
39264;SDS011;42646;51.910;7.724;2023-04-25T09:26:17;5.53;;;2.00;;
39264;SDS011;42646;51.910;7.724;2023-04-25T09:28:46;4.88;;;2.00;;
39264;SDS011;42646;51.910;7.724;2023-04-25T09:31:21;13.80;;;2.37;;
39264;SDS011;42646;51.910;7.724;2023-04-25T09:33:58;6.10;;;1.80;;
39264;SDS011;42646;51.910;7.724;2023-04-25T09:36:33;7.75;;;2.05;;
39264;SDS011;42646;51.910;7.724;2023-04-25T09:39:22;8.80;;;2.00;;
39264;SDS011;42646;51.910;7.724;2023-04-25T09:41:58;5.15;;;1.70;;
39264;SDS011;42646;51.910;7.724;2023-04-25T09:44:26;7.15;;;1.73;;
39264;SDS011;42646;51.910;7.724;2023-04-25T09:46:59;5.72;;;1.52;;
39264;SDS011;42646;51.910;7.724;2023-04-25T09:49:28;6.28;;;2.10;;
39264;SDS011;42646;51.910;7.724;2023-04-25T09:52:09;6.40;;;1.70;;
39264;SDS011;42646;51.910;7.724;2023-04-25T09:54:53;8.32;;;1.77;;
39264;SDS011;42646;51.910;7.724;2023-04-25T09:57:28;6.13;;;1.58;;
39264;SDS011;42646;51.910;7.724;2023-04-25T10:00:00;6.93;;;1.42;;
39264;SDS011;42646;51.910;7.724;2023-04-25T10:02:39;9.50;;;2.10;;
39264;SDS011;42646;51.910;7.724;2023-04-25T10:05:51;6.22;;;1.65;;
39264;SDS011;42646;51.910;7.724;2023-04-25T10:08:22;8.75;;;1.98;;
39264;SDS011;42646;51.910;7.724;2023-04-25T10:10:55;4.85;;;1.60;;
39264;SDS011;42646;51.910;7.724;2023-04-25T10:13:22;3.97;;;1.30;;
39264;SDS011;42646;51.910;7.724;2023-04-25T10:15:51;5.05;;;1.63;;
39264;SDS011;42646;51.910;7.724;2023-04-25T10:18:57;4.32;;;1.50;;
39264;SDS011;42646;51.910;7.724;2023-04-25T10:21:28;4.82;;;1.55;;
39264;SDS011;42646;51.910;7.724;2023-04-25T10:23:58;4.88;;;1.90;;
39264;SDS011;42646;51.910;7.724;2023-04-25T10:26:28;5.10;;;1.50;;
39264;SDS011;42646;51.910;7.724;2023-04-25T10:28:57;8.75;;;1.70;;
39264;SDS011;42646;51.910;7.724;2023-04-25T10:31:29;4.97;;;1.50;;
39264;SDS011;42646;51.910;7.724;2023-04-25T10:33:58;5.90;;;1.45;;
39264;SDS011;42646;51.910;7.724;2023-04-25T10:36:27;5.63;;;1.30;;
39264;SDS011;42646;51.910;7.724;2023-04-25T10:39:02;6.07;;;1.60;;
39264;SDS011;42646;51.910;7.724;2023-04-25T10:41:46;6.90;;;1.80;;
39264;SDS011;42646;51.910;7.724;2023-04-25T10:44:15;4.68;;;1.60;;
39264;SDS011;42646;51.910;7.724;2023-04-25T10:46:44;6.63;;;2.00;;
39264;SDS011;42646;51.910;7.724;2023-04-25T10:49:27;8.25;;;1.88;;
39264;SDS011;42646;51.910;7.724;2023-04-25T10:54:42;5.68;;;1.70;;
39264;SDS011;42646;51.910;7.724;2023-04-25T10:57:36;5.38;;;1.40;;
39264;SDS011;42646;51.910;7.724;2023-04-25T11:00:08;5.53;;;1.60;;
39264;SDS011;42646;51.910;7.724;2023-04-25T11:02:40;4.43;;;1.63;;
39264;SDS011;42646;51.910;7.724;2023-04-25T11:05:09;6.85;;;2.40;;
39264;SDS011;42646;51.910;7.724;2023-04-25T11:07:38;4.93;;;1.80;;
39264;SDS011;42646;51.910;7.724;2023-04-25T11:10:33;4.18;;;1.58;;
39264;SDS011;42646;51.910;7.724;2023-04-25T11:13:03;4.80;;;1.58;;
39264;SDS011;42646;51.910;7.724;2023-04-25T11:15:31;5.03;;;1.90;;
39264;SDS011;42646;51.910;7.724;2023-04-25T11:18:02;5.97;;;1.50;;
39264;SDS011;42646;51.910;7.724;2023-04-25T11:20:36;5.30;;;1.70;;
39264;SDS011;42646;51.910;7.724;2023-04-25T11:23:04;7.45;;;1.88;;
39264;SDS011;42646;51.910;7.724;2023-04-25T11:25:33;8.50;;;1.60;;
39264;SDS011;42646;51.910;7.724;2023-04-25T11:28:06;5.82;;;1.67;;
39264;SDS011;42646;51.910;7.724;2023-04-25T11:30:33;5.18;;;1.88;;
39264;SDS011;42646;51.910;7.724;2023-04-25T11:33:03;8.02;;;2.20;;
39264;SDS011;42646;51.910;7.724;2023-04-25T11:35:30;8.63;;;1.90;;
39264;SDS011;42646;51.910;7.724;2023-04-25T11:38:01;6.40;;;1.60;;
39264;SDS011;42646;51.910;7.724;2023-04-25T11:40:29;7.88;;;1.90;;
39264;SDS011;42646;51.910;7.724;2023-04-25T11:42:59;6.80;;;1.67;;
39264;SDS011;42646;51.910;7.724;2023-04-25T11:45:30;6.35;;;1.80;;
39264;SDS011;42646;51.910;7.724;2023-04-25T11:47:58;9.10;;;1.80;;
39264;SDS011;42646;51.910;7.724;2023-04-25T11:50:26;4.90;;;1.77;;
39264;SDS011;42646;51.910;7.724;2023-04-25T11:52:57;5.00;;;1.95;;
39264;SDS011;42646;51.910;7.724;2023-04-25T11:55:24;5.90;;;1.70;;
39264;SDS011;42646;51.910;7.724;2023-04-25T11:57:53;7.40;;;2.08;;
39264;SDS011;42646;51.910;7.724;2023-04-25T12:00:21;5.75;;;1.77;;
39264;SDS011;42646;51.910;7.724;2023-04-25T12:02:52;6.80;;;2.20;;
39264;SDS011;42646;51.910;7.724;2023-04-25T12:08:09;5.93;;;1.65;;
39264;SDS011;42646;51.910;7.724;2023-04-25T12:10:38;4.30;;;1.42;;
39264;SDS011;42646;51.910;7.724;2023-04-25T12:13:19;6.13;;;1.52;;
39264;SDS011;42646;51.910;7.724;2023-04-25T12:15:49;4.63;;;1.27;;
39264;SDS011;42646;51.910;7.724;2023-04-25T12:18:20;5.60;;;1.30;;
39264;SDS011;42646;51.910;7.724;2023-04-25T12:20:52;4.22;;;1.30;;
39264;SDS011;42646;51.910;7.724;2023-04-25T12:23:24;4.78;;;1.40;;
39264;SDS011;42646;51.910;7.724;2023-04-25T12:25:55;3.30;;;1.20;;
39264;SDS011;42646;51.910;7.724;2023-04-25T12:28:28;3.65;;;1.38;;
39264;SDS011;42646;51.910;7.724;2023-04-25T12:30:59;4.32;;;1.40;;
39264;SDS011;42646;51.910;7.724;2023-04-25T12:33:32;5.80;;;1.40;;
39264;SDS011;42646;51.910;7.724;2023-04-25T12:36:02;4.45;;;1.30;;
39264;SDS011;42646;51.910;7.724;2023-04-25T12:38:35;5.60;;;1.45;;
39264;SDS011;42646;51.910;7.724;2023-04-25T12:41:06;3.37;;;1.20;;
39264;SDS011;42646;51.910;7.724;2023-04-25T12:43:34;3.97;;;1.60;;
39264;SDS011;42646;51.910;7.724;2023-04-25T12:46:03;5.95;;;1.70;;
39264;SDS011;42646;51.910;7.724;2023-04-25T12:48:32;5.00;;;1.30;;
39264;SDS011;42646;51.910;7.724;2023-04-25T12:51:00;3.58;;;1.30;;
39264;SDS011;42646;51.910;7.724;2023-04-25T12:53:28;3.85;;;1.40;;
39264;SDS011;42646;51.910;7.724;2023-04-25T12:55:58;3.88;;;1.50;;
39264;SDS011;42646;51.910;7.724;2023-04-25T12:58:26;4.28;;;1.40;;
39264;SDS011;42646;51.910;7.724;2023-04-25T13:00:53;4.32;;;1.50;;
39264;SDS011;42646;51.910;7.724;2023-04-25T13:03:22;3.17;;;1.23;;
39264;SDS011;42646;51.910;7.724;2023-04-25T13:05:52;4.25;;;1.50;;
39264;SDS011;42646;51.910;7.724;2023-04-25T13:08:21;3.47;;;1.40;;
39264;SDS011;42646;51.910;7.724;2023-04-25T13:10:49;6.80;;;1.58;;
39264;SDS011;42646;51.910;7.724;2023-04-25T13:13:17;4.50;;;1.85;;
39264;SDS011;42646;51.910;7.724;2023-04-25T13:15:46;5.68;;;1.58;;
39264;SDS011;42646;51.910;7.724;2023-04-25T13:18:14;6.22;;;1.60;;
39264;SDS011;42646;51.910;7.724;2023-04-25T13:20:42;5.53;;;1.58;;
39264;SDS011;42646;51.910;7.724;2023-04-25T13:23:13;3.42;;;1.65;;
39264;SDS011;42646;51.910;7.724;2023-04-25T13:25:40;3.90;;;1.73;;
39264;SDS011;42646;51.910;7.724;2023-04-25T13:28:09;4.43;;;1.58;;
39264;SDS011;42646;51.910;7.724;2023-04-25T13:30:38;4.05;;;1.70;;
39264;SDS011;42646;51.910;7.724;2023-04-25T13:33:07;5.50;;;1.70;;
39264;SDS011;42646;51.910;7.724;2023-04-25T13:35:35;3.58;;;1.33;;
39264;SDS011;42646;51.910;7.724;2023-04-25T13:38:04;5.25;;;1.70;;
39264;SDS011;42646;51.910;7.724;2023-04-25T13:40:33;3.10;;;1.27;;
39264;SDS011;42646;51.910;7.724;2023-04-25T13:43:01;4.00;;;1.50;;
39264;SDS011;42646;51.910;7.724;2023-04-25T13:45:53;3.45;;;1.40;;
39264;SDS011;42646;51.910;7.724;2023-04-25T13:48:21;5.90;;;1.58;;
39264;SDS011;42646;51.910;7.724;2023-04-25T13:50:49;6.25;;;1.60;;
39264;SDS011;42646;51.910;7.724;2023-04-25T13:53:18;6.13;;;1.98;;
39264;SDS011;42646;51.910;7.724;2023-04-25T13:55:47;4.65;;;1.30;;
39264;SDS011;42646;51.910;7.724;2023-04-25T13:58:15;5.20;;;1.42;;
39264;SDS011;42646;51.910;7.724;2023-04-25T14:00:42;3.95;;;1.40;;
39264;SDS011;42646;51.910;7.724;2023-04-25T14:03:12;5.78;;;1.70;;
39264;SDS011;42646;51.910;7.724;2023-04-25T14:05:40;3.65;;;1.30;;
39264;SDS011;42646;51.910;7.724;2023-04-25T14:08:08;3.90;;;1.55;;
39264;SDS011;42646;51.910;7.724;2023-04-25T14:10:37;4.45;;;1.38;;
39264;SDS011;42646;51.910;7.724;2023-04-25T14:13:07;4.60;;;1.70;;
39264;SDS011;42646;51.910;7.724;2023-04-25T14:15:36;3.83;;;1.30;;
39264;SDS011;42646;51.910;7.724;2023-04-25T14:18:04;3.90;;;1.38;;
39264;SDS011;42646;51.910;7.724;2023-04-25T14:20:32;3.85;;;1.40;;
39264;SDS011;42646;51.910;7.724;2023-04-25T14:23:00;4.57;;;1.50;;
39264;SDS011;42646;51.910;7.724;2023-04-25T14:25:31;3.45;;;1.40;;
39264;SDS011;42646;51.910;7.724;2023-04-25T14:28:00;4.45;;;1.63;;
39264;SDS011;42646;51.910;7.724;2023-04-25T14:30:30;4.82;;;1.65;;
39264;SDS011;42646;51.910;7.724;2023-04-25T14:32:58;4.13;;;1.70;;
39264;SDS011;42646;51.910;7.724;2023-04-25T14:35:26;4.25;;;1.50;;
39264;SDS011;42646;51.910;7.724;2023-04-25T14:37:53;3.17;;;1.35;;
39264;SDS011;42646;51.910;7.724;2023-04-25T14:40:22;6.57;;;1.70;;
39264;SDS011;42646;51.910;7.724;2023-04-25T14:42:49;6.80;;;1.80;;
39264;SDS011;42646;51.910;7.724;2023-04-25T14:45:19;3.85;;;1.35;;
39264;SDS011;42646;51.910;7.724;2023-04-25T14:47:48;9.02;;;1.98;;
39264;SDS011;42646;51.910;7.724;2023-04-25T14:50:17;4.90;;;1.50;;
39264;SDS011;42646;51.910;7.724;2023-04-25T14:52:46;3.90;;;1.50;;
39264;SDS011;42646;51.910;7.724;2023-04-25T14:55:14;4.95;;;1.65;;
39264;SDS011;42646;51.910;7.724;2023-04-25T14:57:41;4.82;;;1.48;;
39264;SDS011;42646;51.910;7.724;2023-04-25T15:00:09;3.70;;;1.30;;
39264;SDS011;42646;51.910;7.724;2023-04-25T15:02:42;4.00;;;1.40;;
39264;SDS011;42646;51.910;7.724;2023-04-25T15:05:12;6.20;;;1.75;;
39264;SDS011;42646;51.910;7.724;2023-04-25T15:07:40;7.65;;;1.70;;
39264;SDS011;42646;51.910;7.724;2023-04-25T15:10:08;4.38;;;1.30;;
39264;SDS011;42646;51.910;7.724;2023-04-25T15:12:39;4.95;;;1.55;;
39264;SDS011;42646;51.910;7.724;2023-04-25T15:15:08;3.75;;;1.33;;
39264;SDS011;42646;51.910;7.724;2023-04-25T15:17:43;6.38;;;1.50;;
39264;SDS011;42646;51.910;7.724;2023-04-25T15:20:15;5.88;;;1.60;;
39264;SDS011;42646;51.910;7.724;2023-04-25T15:22:45;5.70;;;1.67;;
39264;SDS011;42646;51.910;7.724;2023-04-25T15:25:15;4.35;;;1.40;;
39264;SDS011;42646;51.910;7.724;2023-04-25T15:27:44;3.90;;;1.48;;
39264;SDS011;42646;51.910;7.724;2023-04-25T15:30:15;4.97;;;1.70;;